Terminal Aerodrome Forecast
Issued by NWS

Home | Current Version | Previous Version | Graphics & Text | Print | Product List | Glossary On
Versions: 1 2 3 4 5 6 7 8 9 10 11 12 13 14
568
FTUS45 KGGW 220535
TAFSDY
TAF
KSDY 220535Z 2206/2306 17013KT 6SM -RA SCT020 OVC040
     FM220900 21007KT P6SM VCSH SCT050 BKN090
     FM221100 24007KT 6SM -RA SCT040 BKN080
     FM221400 22008KT P6SM VCSH SCT060 BKN110
     FM221700 23012KT P6SM SCT200
      AMD LTD TO CLD VIS AND WIND=

USA.gov is the U.S. government's official web portal to all federal, state and local government web resources and services.